createdAt,value
2019-02-18T00:00:29.688Z,21.43
2019-02-18T00:02:58.165Z,20.30
2019-02-18T00:05:26.553Z,25.33
2019-02-18T00:07:54.946Z,17.27
2019-02-18T00:10:23.356Z,16.83
2019-02-18T00:12:53.261Z,14.83
2019-02-18T00:15:21.676Z,19.17
2019-02-18T00:17:50.060Z,19.83
2019-02-18T00:20:18.455Z,20.20
2019-02-18T00:22:46.854Z,19.63
2019-02-18T00:25:15.254Z,19.80
2019-02-18T00:27:43.641Z,17.40
2019-02-18T00:30:12.024Z,18.47
2019-02-18T00:32:40.421Z,18.87
2019-02-18T00:35:08.809Z,17.20
2019-02-18T00:37:37.223Z,19.87
2019-02-18T00:40:08.759Z,23.73
2019-02-18T00:42:37.183Z,18.30
2019-02-18T00:45:08.661Z,21.77
2019-02-18T00:47:37.062Z,21.03
2019-02-18T00:50:07.996Z,22.13
2019-02-18T00:52:36.386Z,17.60
2019-02-18T00:55:06.564Z,20.20
2019-02-18T00:57:34.962Z,21.87
2019-02-18T01:00:05.848Z,17.50
2019-02-18T01:02:34.241Z,20.57
2019-02-18T01:05:02.760Z,18.17
2019-02-18T01:07:34.719Z,17.87
2019-02-18T01:10:01.360Z,15.87
2019-02-18T01:12:29.809Z,18.07
2019-02-18T01:14:58.209Z,15.60
2019-02-18T01:17:26.598Z,17.47
2019-02-18T01:19:54.976Z,18.50
2019-02-18T01:22:23.364Z,14.03
2019-02-18T01:24:51.761Z,15.10
2019-02-18T01:27:20.161Z,16.30
2019-02-18T01:29:48.553Z,19.87
2019-02-18T01:32:16.949Z,18.27
2019-02-18T01:34:45.329Z,16.27
2019-02-18T01:37:13.720Z,16.60
2019-02-18T01:39:42.108Z,21.87
2019-02-18T01:42:10.757Z,19.53
2019-02-18T01:44:39.140Z,21.03
2019-02-18T01:47:07.520Z,20.73
2019-02-18T01:49:36.024Z,17.27
2019-02-18T01:52:04.480Z,17.63
2019-02-18T01:54:32.877Z,23.37
2019-02-18T01:57:01.261Z,20.53
2019-02-18T01:59:29.657Z,16.10
2019-02-18T02:01:58.060Z,19.03
2019-02-18T02:04:26.521Z,19.00
2019-02-18T02:06:54.909Z,20.20
2019-02-18T02:09:23.372Z,19.40
2019-02-18T02:11:51.757Z,17.60
2019-02-18T02:14:20.148Z,21.40
2019-02-18T02:16:48.542Z,18.20
2019-02-18T02:19:16.924Z,23.33
2019-02-18T02:21:45.316Z,17.17
2019-02-18T02:24:13.705Z,20.40
2019-02-18T02:26:42.084Z,23.40
2019-02-18T02:29:10.476Z,20.27
2019-02-18T02:31:38.865Z,18.73
2019-02-18T02:34:07.256Z,21.60
2019-02-18T02:36:35.636Z,18.23
2019-02-18T02:39:05.974Z,16.03
2019-02-18T02:41:34.348Z,17.97
2019-02-18T02:44:02.736Z,20.90
2019-02-18T02:46:31.116Z,18.40
2019-02-18T02:48:59.503Z,21.00
2019-02-18T02:51:27.894Z,24.53
2019-02-18T02:53:56.270Z,18.80
2019-02-18T02:56:24.690Z,23.43
2019-02-18T02:58:53.069Z,19.73
2019-02-18T03:01:21.457Z,20.43
2019-02-18T03:03:49.848Z,17.33
2019-02-18T03:06:18.248Z,16.97
2019-02-18T03:08:46.634Z,25.43
2019-02-18T03:11:15.026Z,23.43
2019-02-18T03:13:43.428Z,16.93
2019-02-18T03:16:11.800Z,19.00
2019-02-18T03:18:40.200Z,19.70
2019-02-18T03:21:08.580Z,25.90
2019-02-18T03:23:36.984Z,23.33
2019-02-18T03:26:05.365Z,17.70
2019-02-18T03:28:51.218Z,26.23
2019-02-18T03:31:24.986Z,20.13
2019-02-18T03:34:11.549Z,25.63
2019-02-18T03:36:39.934Z,19.87
2019-02-18T03:39:08.396Z,20.67
2019-02-18T03:41:36.866Z,16.60
2019-02-18T03:44:05.248Z,15.50
2019-02-18T03:46:33.644Z,18.63
2019-02-18T03:49:02.022Z,20.80
2019-02-18T03:51:30.409Z,16.73
2019-02-18T03:53:58.796Z,19.90
2019-02-18T03:56:27.202Z,20.23
2019-02-18T03:58:55.657Z,17.50
2019-02-18T04:01:24.126Z,15.27
2019-02-18T04:03:52.518Z,15.40
2019-02-18T04:06:20.908Z,21.90
2019-02-18T04:08:49.343Z,17.47
2019-02-18T04:11:17.733Z,16.70
2019-02-18T04:13:46.119Z,18.37
2019-02-18T04:16:14.504Z,19.50
2019-02-18T04:18:42.898Z,16.70
2019-02-18T04:21:11.408Z,17.57
2019-02-18T04:23:39.849Z,21.00
2019-02-18T04:26:08.236Z,18.30
2019-02-18T04:28:36.652Z,20.93
2019-02-18T04:31:05.277Z,15.90
2019-02-18T04:33:33.669Z,17.57
2019-02-18T04:36:02.068Z,16.27
2019-02-18T04:38:30.453Z,21.27
2019-02-18T04:40:58.841Z,17.63
2019-02-18T04:43:27.228Z,19.57
2019-02-18T04:45:55.704Z,15.90
2019-02-18T04:48:24.115Z,21.53
2019-02-18T04:50:52.504Z,21.77
2019-02-18T04:53:20.912Z,20.50
2019-02-18T04:55:49.314Z,20.77
2019-02-18T04:58:17.828Z,19.97
2019-02-18T05:00:46.270Z,16.00
2019-02-18T05:03:14.648Z,23.07
2019-02-18T05:05:43.065Z,22.22
2019-02-18T05:08:11.699Z,20.70
2019-02-18T05:10:40.085Z,15.67
2019-02-18T05:13:08.477Z,23.57
2019-02-18T05:15:36.885Z,19.07
2019-02-18T05:18:05.361Z,19.30
2019-02-18T05:20:33.800Z,21.33
2019-02-18T05:23:02.211Z,19.97
2019-02-18T05:25:30.590Z,15.97
2019-02-18T05:27:58.982Z,20.93
2019-02-18T05:30:29.470Z,19.13
2019-02-18T05:32:57.718Z,21.67
2019-02-18T05:35:26.114Z,22.93
2019-02-18T05:37:54.492Z,17.43
2019-02-18T05:40:22.885Z,20.57
2019-02-18T05:42:51.270Z,21.73
2019-02-18T05:45:19.679Z,23.33
2019-02-18T05:47:48.077Z,18.10
2019-02-18T05:50:16.454Z,19.87
2019-02-18T05:52:44.853Z,22.17
2019-02-18T05:55:13.318Z,20.60
2019-02-18T05:57:41.725Z,27.10
2019-02-18T06:00:12.447Z,21.73
2019-02-18T06:02:40.825Z,23.43
2019-02-18T06:05:09.223Z,21.60
2019-02-18T06:07:37.608Z,22.80
2019-02-18T06:10:08.410Z,24.50
2019-02-18T06:12:36.812Z,18.03
2019-02-18T06:15:08.615Z,20.90
2019-02-18T06:17:36.984Z,22.83
2019-02-18T06:20:08.448Z,19.70
2019-02-18T06:22:38.609Z,19.27
2019-02-18T06:25:07.371Z,23.07
2019-02-18T06:27:35.813Z,18.27
2019-02-18T06:30:06.802Z,21.43
2019-02-18T06:32:35.198Z,19.07
2019-02-18T06:35:03.656Z,20.17
2019-02-18T06:37:32.060Z,37.37
2019-02-18T06:40:00.523Z,50.50
2019-02-18T06:42:28.939Z,27.50
2019-02-18T06:44:58.965Z,23.77
2019-02-18T06:47:27.431Z,22.13
2019-02-18T06:49:55.838Z,21.13
2019-02-18T06:52:24.231Z,20.57
2019-02-18T06:54:52.622Z,14.60
2019-02-18T06:59:59.648Z,16.83
2019-02-18T07:02:29.694Z,18.93
2019-02-18T07:05:17.926Z,17.87
2019-02-18T07:07:47.964Z,15.97
2019-02-18T07:10:26.869Z,17.17
2019-02-18T07:12:55.294Z,17.63
2019-02-18T07:15:23.679Z,19.17
2019-02-18T07:17:52.080Z,16.13
2019-02-18T07:20:20.465Z,15.03
2019-02-18T07:22:48.852Z,14.93
2019-02-18T07:25:17.252Z,20.43
2019-02-18T07:27:45.716Z,13.37
2019-02-18T07:30:14.228Z,14.90
2019-02-18T07:32:42.632Z,16.30
2019-02-18T07:35:11.021Z,15.47
2019-02-18T07:37:39.424Z,22.07
2019-02-18T07:40:10.450Z,16.50
2019-02-18T07:42:38.835Z,20.53
2019-02-18T07:45:10.349Z,16.60
2019-02-18T07:47:38.780Z,17.23
2019-02-18T07:50:19.942Z,19.30
2019-02-18T07:52:40.135Z,14.73
2019-02-18T07:55:09.418Z,14.63
2019-02-18T07:57:37.814Z,17.93
2019-02-18T08:00:11.984Z,16.43
2019-02-18T08:02:40.374Z,18.80
2019-02-18T08:05:08.841Z,18.43
2019-02-18T08:07:37.308Z,19.40
2019-02-18T08:10:12.525Z,15.47
2019-02-18T08:12:41.560Z,17.17
2019-02-18T08:15:11.297Z,12.13
2019-02-18T08:17:39.680Z,16.10
2019-02-18T08:20:10.273Z,17.00
2019-02-18T08:22:38.761Z,17.67
2019-02-18T08:25:12.571Z,19.13
2019-02-18T08:27:40.952Z,14.83
2019-02-18T08:30:12.752Z,23.60
2019-02-18T08:32:41.140Z,19.80
2019-02-18T08:35:09.774Z,20.67
2019-02-18T08:37:38.337Z,23.57
2019-02-18T08:40:09.731Z,19.03
2019-02-18T08:42:38.120Z,22.33
2019-02-18T08:45:09.585Z,25.57
2019-02-18T08:47:37.978Z,16.40
2019-02-18T08:50:09.769Z,15.70
2019-02-18T08:52:38.172Z,17.23
2019-02-18T08:55:09.637Z,20.17
2019-02-18T08:57:38.020Z,19.10
2019-02-18T09:00:15.381Z,22.27
2019-02-18T09:02:43.776Z,18.60
2019-02-18T09:05:12.376Z,20.53
2019-02-18T09:07:41.363Z,18.10
2019-02-18T09:10:33.694Z,16.60
2019-02-18T09:12:59.266Z,24.40
2019-02-18T09:15:27.663Z,17.37
2019-02-18T09:17:56.059Z,19.43
2019-02-18T09:20:25.590Z,18.43
2019-02-18T09:22:55.845Z,18.57
2019-02-18T09:25:34.942Z,23.97
2019-02-18T09:28:03.341Z,19.00
2019-02-18T09:30:33.373Z,16.33
2019-02-18T09:33:01.808Z,19.73
2019-02-18T09:35:49.545Z,17.07
2019-02-18T09:38:24.896Z,20.83
2019-02-18T09:40:51.360Z,19.17
2019-02-18T09:43:18.231Z,16.00
2019-02-18T09:45:46.616Z,17.03
2019-02-18T09:48:15.013Z,18.63
2019-02-18T09:50:43.406Z,22.53
2019-02-18T09:53:11.798Z,17.87
2019-02-18T09:55:40.271Z,16.57
2019-02-18T09:58:08.641Z,18.33
2019-02-18T10:00:37.033Z,15.27
2019-02-18T10:03:05.433Z,18.57
2019-02-18T10:05:33.842Z,18.47
2019-02-18T10:08:02.229Z,21.70
2019-02-18T10:10:30.633Z,23.70
2019-02-18T10:12:59.719Z,21.17
2019-02-18T10:15:28.830Z,19.23
2019-02-18T10:17:57.217Z,15.20
2019-02-18T10:20:25.600Z,15.03
2019-02-18T10:22:54.012Z,15.63
2019-02-18T10:25:22.428Z,18.37
2019-02-18T10:27:50.804Z,17.60
2019-02-18T10:30:20.747Z,15.50
2019-02-18T10:32:49.341Z,17.60
2019-02-18T10:35:17.741Z,18.40
2019-02-18T10:37:54.898Z,13.17
2019-02-18T10:40:16.349Z,16.93
2019-02-18T10:42:44.755Z,17.30
2019-02-18T10:45:13.908Z,17.83
2019-02-18T10:47:42.316Z,17.90
2019-02-18T10:50:12.637Z,18.70
2019-02-18T10:52:41.038Z,19.20
2019-02-18T10:55:11.944Z,19.57
2019-02-18T10:57:40.624Z,20.27
2019-02-18T11:00:12.106Z,17.93
2019-02-18T11:02:40.581Z,17.10
2019-02-18T11:05:09.601Z,17.30
2019-02-18T11:07:38.074Z,16.63
2019-02-18T11:10:09.549Z,20.73
2019-02-18T11:12:37.957Z,17.23
2019-02-18T11:15:09.772Z,18.87
2019-02-18T11:17:39.178Z,17.63
2019-02-18T11:20:10.480Z,20.73
2019-02-18T11:22:38.882Z,25.30
2019-02-18T11:25:10.371Z,19.53
2019-02-18T11:27:38.769Z,20.57
2019-02-18T11:30:12.857Z,17.33
2019-02-18T11:32:41.313Z,18.80
2019-02-18T11:35:10.548Z,15.50
2019-02-18T11:37:38.964Z,18.43
2019-02-18T11:40:18.538Z,18.07
2019-02-18T11:42:47.007Z,15.77
2019-02-18T11:45:17.239Z,17.20
2019-02-18T11:47:45.636Z,13.20
2019-02-18T11:50:16.166Z,13.40
2019-02-18T11:52:44.645Z,14.50
2019-02-18T11:55:14.876Z,15.57
2019-02-18T11:57:45.125Z,13.90
2019-02-18T12:00:17.988Z,19.53
2019-02-18T12:02:46.425Z,15.50
2019-02-18T12:05:14.890Z,18.63
2019-02-18T12:07:43.360Z,26.57
2019-02-18T12:10:14.092Z,43.83
2019-02-18T12:12:42.785Z,28.80
2019-02-18T12:15:14.186Z,16.30
2019-02-18T12:17:42.651Z,20.53
2019-02-18T12:20:14.139Z,16.90
2019-02-18T12:22:42.608Z,13.83
2019-02-18T12:25:13.578Z,22.52
2019-02-18T12:27:42.370Z,13.23
2019-02-18T12:30:16.029Z,18.30
2019-02-18T12:32:44.500Z,17.77
2019-02-18T12:35:13.869Z,14.80
2019-02-18T12:37:42.336Z,14.33
2019-02-18T12:40:16.511Z,12.23
2019-02-18T12:42:44.905Z,16.97
2019-02-18T12:45:14.283Z,16.50
2019-02-18T12:47:42.886Z,15.33
2019-02-18T12:50:13.583Z,13.77
2019-02-18T12:52:41.986Z,15.93
2019-02-18T12:55:12.116Z,16.97
2019-02-18T12:57:40.612Z,15.13
2019-02-18T13:00:14.965Z,12.90
2019-02-18T13:02:45.132Z,14.18
2019-02-18T13:05:14.373Z,14.50
2019-02-18T13:07:42.869Z,13.22
2019-02-18T13:10:13.251Z,16.65
2019-02-18T13:12:42.031Z,11.55
2019-02-18T13:15:18.244Z,14.15
2019-02-18T13:17:46.694Z,14.70
2019-02-18T13:20:15.088Z,14.50
2019-02-18T13:22:43.633Z,11.88
2019-02-18T13:25:12.862Z,14.30
2019-02-18T13:27:41.253Z,11.08
2019-02-18T13:30:21.726Z,14.28
2019-02-18T13:32:50.109Z,11.80
2019-02-18T13:35:18.499Z,14.63
2019-02-18T13:37:46.895Z,15.13
2019-02-18T13:40:16.848Z,12.47
2019-02-18T13:42:45.684Z,10.63
2019-02-18T13:45:14.845Z,15.38
2019-02-18T13:47:43.233Z,14.75
2019-02-18T13:50:13.865Z,15.53
2019-02-18T13:52:42.252Z,13.62
2019-02-18T13:55:13.082Z,11.90
2019-02-18T13:57:41.904Z,13.58
2019-02-18T14:00:21.108Z,14.25
2019-02-18T14:02:50.585Z,14.75
2019-02-18T14:05:21.810Z,12.55
2019-02-18T14:07:50.289Z,17.70
2019-02-18T14:10:20.900Z,12.37
2019-02-18T14:12:49.368Z,12.10
2019-02-18T14:15:19.343Z,16.57
2019-02-18T14:17:47.810Z,15.43
2019-02-18T14:20:17.813Z,11.57
2019-02-18T14:22:46.282Z,12.40
2019-02-18T14:25:15.630Z,13.80
2019-02-18T14:27:44.036Z,14.43
2019-02-18T14:30:17.496Z,16.07
2019-02-18T14:32:45.882Z,13.47
2019-02-18T14:35:16.917Z,16.47
2019-02-18T14:37:46.959Z,13.20
2019-02-18T14:40:20.650Z,15.30
2019-02-18T14:42:49.033Z,14.43
2019-02-18T14:45:17.561Z,14.28
2019-02-18T14:47:46.033Z,14.63
2019-02-18T14:50:17.511Z,20.08
2019-02-18T14:52:46.799Z,17.70
2019-02-18T14:55:15.418Z,15.17
2019-02-18T14:57:43.820Z,15.27
2019-02-18T15:00:20.562Z,18.43
2019-02-18T15:02:51.392Z,17.37
2019-02-18T15:05:19.933Z,14.73
2019-02-18T15:07:48.326Z,16.45
2019-02-18T15:10:16.797Z,13.65
2019-02-18T15:12:45.192Z,13.75
2019-02-18T15:15:13.737Z,13.38
2019-02-18T15:17:42.140Z,14.38
2019-02-18T15:20:11.604Z,15.55
2019-02-18T15:22:40.858Z,14.10
2019-02-18T15:25:11.553Z,14.33
2019-02-18T15:27:39.954Z,14.73
2019-02-18T15:30:14.204Z,16.70
2019-02-18T15:32:42.584Z,15.32
2019-02-18T15:35:11.052Z,13.00
2019-02-18T15:37:39.448Z,16.60
2019-02-18T15:40:12.520Z,15.50
2019-02-18T15:42:42.541Z,19.60
2019-02-18T15:45:11.105Z,15.32
2019-02-18T15:47:39.637Z,26.27
2019-02-18T15:50:13.148Z,19.20
2019-02-18T15:52:41.544Z,17.23
2019-02-18T15:55:11.577Z,16.50
2019-02-18T15:57:39.997Z,22.27
2019-02-18T16:00:17.148Z,16.80
2019-02-18T16:02:46.417Z,13.57
2019-02-18T16:05:14.806Z,15.17
2019-02-18T16:07:43.193Z,16.97
2019-02-18T16:10:11.598Z,18.60
2019-02-18T16:12:39.997Z,19.70
2019-02-18T16:15:11.336Z,26.47
2019-02-18T16:17:39.728Z,24.17
2019-02-18T16:20:13.573Z,24.27
2019-02-18T16:22:42.033Z,21.67
2019-02-18T16:25:16.697Z,19.07
2019-02-18T16:27:45.094Z,18.33
2019-02-18T16:30:15.864Z,11.67
2019-02-18T16:32:44.604Z,15.43
2019-02-18T16:35:13.125Z,10.90
2019-02-18T16:37:42.381Z,9.30
2019-02-18T16:40:13.862Z,12.77
2019-02-18T16:42:42.262Z,10.97
2019-02-18T16:45:15.132Z,10.97
2019-02-18T16:47:43.559Z,13.80
2019-02-18T16:50:13.157Z,12.57
2019-02-18T16:52:41.614Z,12.23
2019-02-18T16:55:12.332Z,13.90
2019-02-18T16:57:40.731Z,12.13
2019-02-18T17:00:17.308Z,14.47
2019-02-18T17:02:45.705Z,13.67
2019-02-18T17:05:14.126Z,13.90
2019-02-18T17:07:42.581Z,13.20
2019-02-18T17:10:11.035Z,12.07
2019-02-18T17:12:39.444Z,14.97
2019-02-18T17:15:11.257Z,12.37
2019-02-18T17:17:39.652Z,13.93
2019-02-18T17:20:09.088Z,14.23
2019-02-18T17:22:37.484Z,12.40
2019-02-18T17:25:08.975Z,12.27
2019-02-18T17:27:37.365Z,13.87
2019-02-18T17:30:15.441Z,14.67
2019-02-18T17:32:43.846Z,16.33
2019-02-18T17:35:15.681Z,13.33
2019-02-18T17:37:44.078Z,12.20
2019-02-18T17:40:14.609Z,13.97
2019-02-18T17:42:43.878Z,15.03
2019-02-18T17:45:15.205Z,12.63
2019-02-18T17:47:43.592Z,14.03
2019-02-18T17:50:14.930Z,17.87
2019-02-18T17:52:43.320Z,11.40
2019-02-18T17:55:14.253Z,15.27
2019-02-18T17:57:42.905Z,14.40
2019-02-18T18:00:14.381Z,15.67
2019-02-18T18:02:42.777Z,13.20
2019-02-18T18:05:11.318Z,16.50
2019-02-18T18:07:39.709Z,15.20
2019-02-18T18:10:13.088Z,15.27
2019-02-18T18:12:41.485Z,12.03
2019-02-18T18:15:16.166Z,12.93
2019-02-18T18:17:44.625Z,12.67
2019-02-18T18:20:15.057Z,13.40
2019-02-18T18:22:43.444Z,13.27
2019-02-18T18:25:14.620Z,14.30
2019-02-18T18:27:43.005Z,15.73
2019-02-18T18:30:19.476Z,15.57
2019-02-18T18:32:47.865Z,15.43
2019-02-18T18:35:16.264Z,15.00
2019-02-18T18:37:44.658Z,19.03
2019-02-18T18:40:16.916Z,18.67
2019-02-18T18:42:45.369Z,13.83
2019-02-18T18:45:18.270Z,12.90
2019-02-18T18:47:46.670Z,15.80
2019-02-18T18:50:18.177Z,14.10
2019-02-18T18:52:46.841Z,15.70
2019-02-18T18:55:15.233Z,13.07
2019-02-18T18:57:43.712Z,15.13
2019-02-18T19:00:19.949Z,11.63
2019-02-18T19:02:48.349Z,11.93
2019-02-18T19:05:16.734Z,11.53
2019-02-18T19:07:45.125Z,10.77
2019-02-18T19:10:13.522Z,12.67
2019-02-18T19:12:41.912Z,14.10
2019-02-18T19:15:15.393Z,11.13
2019-02-18T19:17:43.787Z,12.93
2019-02-18T19:20:13.213Z,15.27
2019-02-18T19:22:41.694Z,12.00
2019-02-18T19:25:12.712Z,11.80
2019-02-18T19:27:41.172Z,13.17
2019-02-18T19:30:15.173Z,13.27
2019-02-18T19:32:43.552Z,15.87
2019-02-18T19:35:11.952Z,9.77
2019-02-18T19:37:40.392Z,11.70
2019-02-18T19:40:11.702Z,12.60
2019-02-18T19:42:40.157Z,13.93
2019-02-18T19:45:20.621Z,12.30
2019-02-18T19:47:49.009Z,11.67
2019-02-18T19:50:18.279Z,10.90
2019-02-18T19:52:47.265Z,13.53
2019-02-18T19:55:15.661Z,10.13
2019-02-18T19:57:44.053Z,12.80
2019-02-18T20:00:18.436Z,13.27
2019-02-18T20:02:46.893Z,10.73
2019-02-18T20:05:15.297Z,13.23
2019-02-18T20:07:44.320Z,14.73
2019-02-18T20:10:13.929Z,12.53
2019-02-18T20:12:42.333Z,13.70
2019-02-18T20:15:16.313Z,10.73
2019-02-18T20:17:44.732Z,14.77
2019-02-18T20:20:15.753Z,17.73
2019-02-18T20:22:44.148Z,14.63
2019-02-18T20:25:12.689Z,16.07
2019-02-18T20:27:41.071Z,16.37
2019-02-18T20:30:17.019Z,12.93
2019-02-18T20:32:45.444Z,15.47
2019-02-18T20:35:13.925Z,12.43
2019-02-18T20:37:42.344Z,12.90
2019-02-18T20:40:11.966Z,14.50
2019-02-18T20:42:40.801Z,13.47
2019-02-18T20:45:12.018Z,14.40
2019-02-18T20:47:40.407Z,13.65
2019-02-18T20:50:11.725Z,14.07
2019-02-18T20:52:40.125Z,12.07
2019-02-18T20:55:11.587Z,14.10
2019-02-18T20:57:39.985Z,14.30
2019-02-18T21:00:13.405Z,17.30
2019-02-18T21:02:41.798Z,11.23
2019-02-18T21:05:10.256Z,12.27
2019-02-18T21:07:38.721Z,11.27
2019-02-18T21:10:15.577Z,12.90
2019-02-18T21:12:43.960Z,11.40
2019-02-18T21:15:12.481Z,10.40
2019-02-18T21:17:40.868Z,14.73
2019-02-18T21:20:12.480Z,11.87
2019-02-18T21:22:40.947Z,9.53
2019-02-18T21:25:10.753Z,11.73
2019-02-18T21:27:39.156Z,12.77
2019-02-18T21:30:13.281Z,11.67
2019-02-18T21:32:41.673Z,10.73
2019-02-18T21:35:10.155Z,13.90
2019-02-18T21:37:38.596Z,15.53
2019-02-18T21:40:10.053Z,11.67
2019-02-18T21:42:38.460Z,13.40
2019-02-18T21:45:12.920Z,11.83
2019-02-18T21:47:53.437Z,14.77
2019-02-18T21:50:22.104Z,12.13
2019-02-18T21:52:50.493Z,10.93
2019-02-18T21:55:18.897Z,12.87
2019-02-18T21:57:47.268Z,9.23
2019-02-18T22:00:20.147Z,9.87
2019-02-18T22:02:48.592Z,12.20
2019-02-18T22:05:17.854Z,10.47
2019-02-18T22:07:46.249Z,9.37
2019-02-18T22:10:15.572Z,8.23
2019-02-18T22:12:43.953Z,8.93
2019-02-18T22:15:15.073Z,9.20
2019-02-18T22:17:43.465Z,10.90
2019-02-18T22:20:14.364Z,11.27
2019-02-18T22:22:42.761Z,13.20
2019-02-18T22:25:13.286Z,10.70
2019-02-18T22:27:41.669Z,9.53
2019-02-18T22:30:15.680Z,10.30
2019-02-18T22:32:44.162Z,9.90
2019-02-18T22:35:14.189Z,12.67
2019-02-18T22:37:42.574Z,9.60
2019-02-18T22:40:13.496Z,11.37
2019-02-18T22:42:41.874Z,10.53
2019-02-18T22:45:12.399Z,12.53
2019-02-18T22:47:40.806Z,12.33
2019-02-18T22:50:11.905Z,7.37
2019-02-18T22:52:40.529Z,10.67
2019-02-18T22:55:10.584Z,9.83
2019-02-18T22:57:39.891Z,13.33
2019-02-18T23:00:29.780Z,11.33
2019-02-18T23:02:58.953Z,10.20
2019-02-18T23:05:27.416Z,12.63
2019-02-18T23:07:55.812Z,10.53
2019-02-18T23:10:24.216Z,12.27
2019-02-18T23:12:52.609Z,11.53
2019-02-18T23:15:21.000Z,9.27
2019-02-18T23:17:49.384Z,10.07
2019-02-18T23:20:18.027Z,17.03
2019-02-18T23:22:46.409Z,9.87
2019-02-18T23:25:14.788Z,8.30
2019-02-18T23:27:43.186Z,11.27
2019-02-18T23:30:11.638Z,7.40
2019-02-18T23:32:40.032Z,10.20
2019-02-18T23:35:08.430Z,10.30
2019-02-18T23:37:36.814Z,9.73
2019-02-18T23:40:06.453Z,8.53
2019-02-18T23:42:34.837Z,10.23
2019-02-18T23:45:03.303Z,12.17
2019-02-18T23:47:31.697Z,10.17
2019-02-18T23:50:00.207Z,8.73
2019-02-18T23:52:29.137Z,6.80
2019-02-18T23:54:57.526Z,7.20
2019-02-18T23:57:25.920Z,9.97
2019-02-18T23:59:54.334Z,11.97
